This is the latest recevied weather packets stored in our database for station/object DH0DM-13. If no packets are shown the sender has not sent any weather packets the latest 10 day(s).
| Time | Temp. | Humidity | Pressure | Rain* | Wind** | Luminosity | Snow |
|---|---|---|---|---|---|---|---|
| 1777231481 | 5° C | 73% | 997.9 hPa | 0 mm | 0 m/s | - | - |
| 1777230880 | 5° C | 72% | 997.9 hPa | 0 mm | 0 m/s | - | - |
| 1777230279 | 5.56° C | 71% | 997.6 hPa | 0 mm | 0 m/s | - | - |
| 1777229678 | 5.56° C | 70% | 997.8 hPa | 0 mm | 0 m/s | - | - |
| 1777229077 | 6.67° C | 66% | 997.6 hPa | 0 mm | 0 m/s | - | - |
| 1777228476 | 7.22° C | 64% | 997.6 hPa | 0 mm | 0 m/s | - | - |
| 1777227875 | 7.78° C | 61% | 997.5 hPa | 0 mm | 0 m/s | - | - |
| 1777227274 | 8.33° C | 59% | 997.4 hPa | 0 mm | 0.89 m/s, 236° | - | - |
| 1777226673 | 9.44° C | 54% | 997.2 hPa | 0 mm | 0 m/s | - | - |
| 1777226072 | 10° C | 46% | 997.3 hPa | 0 mm | 0 m/s | - | - |
| 1777225471 | 11.11° C | 46% | 997.2 hPa | 0 mm | 0 m/s | - | - |
| 1777224869 | 11.67° C | 41% | 997.3 hPa | 0 mm | 0.89 m/s, 232° | - | - |
| 1777224266 | 11.67° C | 42% | 997.2 hPa | 0 mm | 0 m/s | - | - |
| 1777223665 | 12.22° C | 39% | 997.2 hPa | 0 mm | 0 m/s | - | - |
| 1777223065 | 12.22° C | 41% | 997.1 hPa | 0 mm | 0 m/s | - | - |
| 1777222464 | 12.78° C | 38% | 997.1 hPa | 0 mm | 0.45 m/s, 301° | - | - |
| 1777221863 | 13.33° C | 37% | 997.2 hPa | 0 mm | 1.34 m/s, 311° | - | - |
| 1777221262 | 13.89° C | 35% | 997.1 hPa | 0 mm | 2.68 m/s, 245° | - | - |
| 1777220661 | 13.89° C | 35% | 997.2 hPa | 0 mm | 1.79 m/s, 271° | - | - |
| 1777220058 | 13.89° C | 35% | 997.1 hPa | 0 mm | 0.89 m/s, 255° | - | - |
| 1777219457 | 13.89° C | 36% | 997.1 hPa | 0 mm | 1.79 m/s, 287° | - | - |
| 1777218856 | 14.44° C | 34% | 997 hPa | 0 mm | 6.26 m/s, 232° | - | - |
| 1777218255 | 14.44° C | 34% | 997.1 hPa | 0 mm | 2.68 m/s, 245° | - | - |
| 1777217654 | 14.44° C | 34% | 997.2 hPa | 0 mm | 2.68 m/s, 324° | - | - |
| 1777217053 | 15° C | 34% | 997.3 hPa | 0 mm | 5.36 m/s, 232° | - | - |
* Rain since midnight (hover to see other rain measurements)
** Current wind speed in m/s (hover to see current wind gust speed)